sensor_id;sensor_type;location;lat;lon;timestamp;P1;durP1;ratioP1;P2;durP2;ratioP2
68653;SDS011;55636;51.108;13.622;2022-09-14T00:00:30;7.10;;;6.40;;
68653;SDS011;55636;51.108;13.622;2022-09-14T00:01:36;9.60;;;6.68;;
68653;SDS011;55636;51.108;13.622;2022-09-14T00:02:41;7.60;;;6.78;;
68653;SDS011;55636;51.108;13.622;2022-09-14T00:03:43;8.73;;;6.82;;
68653;SDS011;55636;51.108;13.622;2022-09-14T00:04:46;7.15;;;6.45;;
68653;SDS011;55636;51.108;13.622;2022-09-14T00:05:48;7.70;;;6.25;;
68653;SDS011;55636;51.108;13.622;2022-09-14T00:06:51;7.78;;;6.38;;
68653;SDS011;55636;51.108;13.622;2022-09-14T00:07:53;7.65;;;6.20;;
68653;SDS011;55636;51.108;13.622;2022-09-14T00:08:55;7.25;;;6.10;;
68653;SDS011;55636;51.108;13.622;2022-09-14T00:09:59;7.00;;;6.30;;
68653;SDS011;55636;51.108;13.622;2022-09-14T00:11:05;7.00;;;5.72;;
68653;SDS011;55636;51.108;13.622;2022-09-14T00:12:09;7.13;;;5.78;;
68653;SDS011;55636;51.108;13.622;2022-09-14T00:13:12;6.15;;;5.55;;
68653;SDS011;55636;51.108;13.622;2022-09-14T00:14:15;6.55;;;5.93;;
68653;SDS011;55636;51.108;13.622;2022-09-14T00:15:18;6.25;;;5.63;;
68653;SDS011;55636;51.108;13.622;2022-09-14T00:16:25;6.30;;;5.70;;
68653;SDS011;55636;51.108;13.622;2022-09-14T00:17:29;7.50;;;5.90;;
68653;SDS011;55636;51.108;13.622;2022-09-14T00:18:32;6.20;;;5.60;;
68653;SDS011;55636;51.108;13.622;2022-09-14T00:19:35;6.63;;;6.00;;
68653;SDS011;55636;51.108;13.622;2022-09-14T00:20:37;7.63;;;5.85;;
68653;SDS011;55636;51.108;13.622;2022-09-14T00:21:40;8.23;;;6.13;;
68653;SDS011;55636;51.108;13.622;2022-09-14T00:22:43;7.70;;;5.80;;
68653;SDS011;55636;51.108;13.622;2022-09-14T00:23:45;6.40;;;5.80;;
68653;SDS011;55636;51.108;13.622;2022-09-14T00:24:47;6.50;;;5.80;;
68653;SDS011;55636;51.108;13.622;2022-09-14T00:25:50;6.38;;;5.78;;
68653;SDS011;55636;51.108;13.622;2022-09-14T00:26:52;6.43;;;5.82;;
68653;SDS011;55636;51.108;13.622;2022-09-14T00:27:55;6.38;;;5.78;;
68653;SDS011;55636;51.108;13.622;2022-09-14T00:28:58;6.82;;;6.13;;
68653;SDS011;55636;51.108;13.622;2022-09-14T00:30:05;8.88;;;5.75;;
68653;SDS011;55636;51.108;13.622;2022-09-14T00:31:08;6.40;;;5.18;;
68653;SDS011;55636;51.108;13.622;2022-09-14T00:32:12;6.38;;;5.53;;
68653;SDS011;55636;51.108;13.622;2022-09-14T00:33:14;6.38;;;5.78;;
68653;SDS011;55636;51.108;13.622;2022-09-14T00:34:16;6.90;;;6.20;;
68653;SDS011;55636;51.108;13.622;2022-09-14T00:35:19;6.28;;;5.68;;
68653;SDS011;55636;51.108;13.622;2022-09-14T00:36:25;6.25;;;5.65;;
68653;SDS011;55636;51.108;13.622;2022-09-14T00:37:29;7.38;;;5.85;;
68653;SDS011;55636;51.108;13.622;2022-09-14T00:38:31;5.97;;;5.38;;
68653;SDS011;55636;51.108;13.622;2022-09-14T00:39:33;6.68;;;6.00;;
68653;SDS011;55636;51.108;13.622;2022-09-14T00:40:37;6.47;;;5.78;;
68653;SDS011;55636;51.108;13.622;2022-09-14T00:41:41;6.38;;;5.35;;
68653;SDS011;55636;51.108;13.622;2022-09-14T00:42:45;6.82;;;5.95;;
68653;SDS011;55636;51.108;13.622;2022-09-14T00:43:55;6.93;;;5.90;;
68653;SDS011;55636;51.108;13.622;2022-09-14T00:45:05;5.88;;;5.10;;
68653;SDS011;55636;51.108;13.622;2022-09-14T00:46:15;6.50;;;5.88;;
68653;SDS011;55636;51.108;13.622;2022-09-14T00:47:17;6.30;;;5.65;;
68653;SDS011;55636;51.108;13.622;2022-09-14T00:48:21;6.78;;;5.63;;
68653;SDS011;55636;51.108;13.622;2022-09-14T00:50:30;6.57;;;5.97;;
68653;SDS011;55636;51.108;13.622;2022-09-14T00:51:33;6.43;;;5.82;;
68653;SDS011;55636;51.108;13.622;2022-09-14T00:52:41;6.82;;;6.10;;
68653;SDS011;55636;51.108;13.622;2022-09-14T00:53:46;6.30;;;5.70;;
68653;SDS011;55636;51.108;13.622;2022-09-14T00:54:50;7.15;;;6.03;;
68653;SDS011;55636;51.108;13.622;2022-09-14T00:56:13;5.90;;;5.35;;
68653;SDS011;55636;51.108;13.622;2022-09-14T00:57:15;7.15;;;5.80;;
68653;SDS011;55636;51.108;13.622;2022-09-14T00:58:19;7.88;;;6.07;;
68653;SDS011;55636;51.108;13.622;2022-09-14T00:59:23;7.18;;;6.22;;
68653;SDS011;55636;51.108;13.622;2022-09-14T01:00:28;6.55;;;5.60;;
68653;SDS011;55636;51.108;13.622;2022-09-14T01:01:32;6.47;;;5.88;;
68653;SDS011;55636;51.108;13.622;2022-09-14T01:02:35;6.38;;;5.65;;
68653;SDS011;55636;51.108;13.622;2022-09-14T01:03:38;6.70;;;6.10;;
68653;SDS011;55636;51.108;13.622;2022-09-14T01:04:40;8.05;;;6.30;;
68653;SDS011;55636;51.108;13.622;2022-09-14T01:05:55;6.38;;;5.78;;
68653;SDS011;55636;51.108;13.622;2022-09-14T01:07:28;7.03;;;5.93;;
68653;SDS011;55636;51.108;13.622;2022-09-14T01:11:15;6.63;;;6.00;;
68653;SDS011;55636;51.108;13.622;2022-09-14T01:12:31;6.65;;;6.00;;
68653;SDS011;55636;51.108;13.622;2022-09-14T01:15:27;6.53;;;5.93;;
68653;SDS011;55636;51.108;13.622;2022-09-14T01:16:42;6.63;;;5.90;;
68653;SDS011;55636;51.108;13.622;2022-09-14T01:17:59;7.57;;;6.18;;
68653;SDS011;55636;51.108;13.622;2022-09-14T01:20:52;6.10;;;5.50;;
68653;SDS011;55636;51.108;13.622;2022-09-14T01:21:56;7.07;;;5.97;;
68653;SDS011;55636;51.108;13.622;2022-09-14T01:25:05;6.30;;;5.55;;
68653;SDS011;55636;51.108;13.622;2022-09-14T01:27:41;6.85;;;6.15;;
68653;SDS011;55636;51.108;13.622;2022-09-14T01:31:13;7.68;;;6.40;;
68653;SDS011;55636;51.108;13.622;2022-09-14T01:32:27;6.72;;;6.03;;
68653;SDS011;55636;51.108;13.622;2022-09-14T01:33:36;6.25;;;5.65;;
68653;SDS011;55636;51.108;13.622;2022-09-14T01:35:56;6.47;;;5.85;;
68653;SDS011;55636;51.108;13.622;2022-09-14T01:37:08;6.80;;;6.15;;
68653;SDS011;55636;51.108;13.622;2022-09-14T01:38:17;7.47;;;6.20;;
68653;SDS011;55636;51.108;13.622;2022-09-14T01:39:23;6.93;;;6.07;;
68653;SDS011;55636;51.108;13.622;2022-09-14T01:40:37;6.50;;;5.90;;
68653;SDS011;55636;51.108;13.622;2022-09-14T01:41:43;6.88;;;6.00;;
68653;SDS011;55636;51.108;13.622;2022-09-14T01:42:49;6.82;;;6.13;;
68653;SDS011;55636;51.108;13.622;2022-09-14T01:43:59;6.70;;;6.10;;
68653;SDS011;55636;51.108;13.622;2022-09-14T01:45:10;6.70;;;6.00;;
68653;SDS011;55636;51.108;13.622;2022-09-14T01:46:17;6.60;;;5.90;;
68653;SDS011;55636;51.108;13.622;2022-09-14T01:47:25;6.53;;;5.53;;
68653;SDS011;55636;51.108;13.622;2022-09-14T01:48:42;7.22;;;6.45;;
68653;SDS011;55636;51.108;13.622;2022-09-14T01:50:05;7.40;;;5.88;;
68653;SDS011;55636;51.108;13.622;2022-09-14T01:51:12;6.68;;;5.80;;
68653;SDS011;55636;51.108;13.622;2022-09-14T01:52:20;6.63;;;6.03;;
68653;SDS011;55636;51.108;13.622;2022-09-14T01:53:29;8.02;;;6.60;;
68653;SDS011;55636;51.108;13.622;2022-09-14T01:54:36;7.50;;;6.00;;
68653;SDS011;55636;51.108;13.622;2022-09-14T01:57:31;7.05;;;6.10;;
68653;SDS011;55636;51.108;13.622;2022-09-14T01:58:34;8.68;;;6.30;;
68653;SDS011;55636;51.108;13.622;2022-09-14T01:59:54;6.63;;;6.03;;
68653;SDS011;55636;51.108;13.622;2022-09-14T02:01:03;7.97;;;6.60;;
68653;SDS011;55636;51.108;13.622;2022-09-14T02:02:13;7.07;;;6.38;;
68653;SDS011;55636;51.108;13.622;2022-09-14T02:03:23;6.63;;;5.95;;
68653;SDS011;55636;51.108;13.622;2022-09-14T02:04:51;7.35;;;6.28;;
68653;SDS011;55636;51.108;13.622;2022-09-14T02:07:15;7.43;;;5.90;;
68653;SDS011;55636;51.108;13.622;2022-09-14T02:08:19;6.38;;;5.78;;
68653;SDS011;55636;51.108;13.622;2022-09-14T02:09:22;7.30;;;5.97;;
68653;SDS011;55636;51.108;13.622;2022-09-14T02:10:28;7.78;;;6.38;;
68653;SDS011;55636;51.108;13.622;2022-09-14T02:11:30;7.40;;;6.55;;
68653;SDS011;55636;51.108;13.622;2022-09-14T02:12:33;7.28;;;6.57;;
68653;SDS011;55636;51.108;13.622;2022-09-14T02:13:35;8.52;;;7.05;;
68653;SDS011;55636;51.108;13.622;2022-09-14T02:14:39;8.50;;;7.05;;
68653;SDS011;55636;51.108;13.622;2022-09-14T02:15:41;8.68;;;7.18;;
68653;SDS011;55636;51.108;13.622;2022-09-14T02:16:43;9.10;;;7.82;;
68653;SDS011;55636;51.108;13.622;2022-09-14T02:17:47;9.18;;;7.55;;
68653;SDS011;55636;51.108;13.622;2022-09-14T02:18:51;9.73;;;7.32;;
68653;SDS011;55636;51.108;13.622;2022-09-14T02:19:55;7.88;;;7.07;;
68653;SDS011;55636;51.108;13.622;2022-09-14T02:21:03;8.73;;;7.82;;
68653;SDS011;55636;51.108;13.622;2022-09-14T02:22:13;10.68;;;8.30;;
68653;SDS011;55636;51.108;13.622;2022-09-14T02:23:16;10.18;;;8.23;;
68653;SDS011;55636;51.108;13.622;2022-09-14T02:24:19;9.45;;;8.20;;
68653;SDS011;55636;51.108;13.622;2022-09-14T02:25:21;11.43;;;8.43;;
68653;SDS011;55636;51.108;13.622;2022-09-14T02:26:24;11.50;;;8.07;;
68653;SDS011;55636;51.108;13.622;2022-09-14T02:27:27;8.27;;;7.32;;
68653;SDS011;55636;51.108;13.622;2022-09-14T02:28:29;9.27;;;7.70;;
68653;SDS011;55636;51.108;13.622;2022-09-14T02:29:32;8.50;;;7.70;;
68653;SDS011;55636;51.108;13.622;2022-09-14T02:30:41;8.93;;;7.30;;
68653;SDS011;55636;51.108;13.622;2022-09-14T02:32:09;10.40;;;7.53;;
68653;SDS011;55636;51.108;13.622;2022-09-14T02:33:27;7.88;;;6.82;;
68653;SDS011;55636;51.108;13.622;2022-09-14T02:35:07;7.78;;;6.82;;
68653;SDS011;55636;51.108;13.622;2022-09-14T02:38:00;8.13;;;6.78;;
68653;SDS011;55636;51.108;13.622;2022-09-14T02:39:32;7.55;;;6.63;;
68653;SDS011;55636;51.108;13.622;2022-09-14T02:40:54;7.75;;;6.90;;
68653;SDS011;55636;51.108;13.622;2022-09-14T02:42:11;8.18;;;6.50;;
68653;SDS011;55636;51.108;13.622;2022-09-14T02:45:00;7.07;;;6.38;;
68653;SDS011;55636;51.108;13.622;2022-09-14T02:46:13;7.78;;;6.55;;
68653;SDS011;55636;51.108;13.622;2022-09-14T02:48:34;7.25;;;6.18;;
68653;SDS011;55636;51.108;13.622;2022-09-14T02:49:43;7.00;;;6.30;;
68653;SDS011;55636;51.108;13.622;2022-09-14T02:54:07;6.70;;;6.00;;
68653;SDS011;55636;51.108;13.622;2022-09-14T02:55:17;7.07;;;6.07;;
68653;SDS011;55636;51.108;13.622;2022-09-14T02:56:22;7.05;;;6.03;;
68653;SDS011;55636;51.108;13.622;2022-09-14T02:57:25;6.50;;;5.80;;
68653;SDS011;55636;51.108;13.622;2022-09-14T02:58:37;6.75;;;6.00;;
68653;SDS011;55636;51.108;13.622;2022-09-14T02:59:41;7.10;;;6.40;;
68653;SDS011;55636;51.108;13.622;2022-09-14T03:00:45;7.03;;;5.95;;
68653;SDS011;55636;51.108;13.622;2022-09-14T03:01:49;6.90;;;6.20;;
68653;SDS011;55636;51.108;13.622;2022-09-14T03:02:52;6.43;;;5.80;;
68653;SDS011;55636;51.108;13.622;2022-09-14T03:03:54;6.95;;;6.15;;
68653;SDS011;55636;51.108;13.622;2022-09-14T03:04:56;9.27;;;6.75;;
68653;SDS011;55636;51.108;13.622;2022-09-14T03:05:59;6.85;;;6.13;;
68653;SDS011;55636;51.108;13.622;2022-09-14T03:07:01;6.65;;;5.97;;
68653;SDS011;55636;51.108;13.622;2022-09-14T03:08:03;7.72;;;6.10;;
68653;SDS011;55636;51.108;13.622;2022-09-14T03:09:06;7.40;;;6.60;;
68653;SDS011;55636;51.108;13.622;2022-09-14T03:10:08;6.78;;;5.90;;
68653;SDS011;55636;51.108;13.622;2022-09-14T03:11:11;7.28;;;6.43;;
68653;SDS011;55636;51.108;13.622;2022-09-14T03:12:13;7.68;;;6.00;;
68653;SDS011;55636;51.108;13.622;2022-09-14T03:13:16;6.95;;;6.15;;
68653;SDS011;55636;51.108;13.622;2022-09-14T03:14:18;8.48;;;6.10;;
68653;SDS011;55636;51.108;13.622;2022-09-14T03:15:21;7.50;;;6.05;;
68653;SDS011;55636;51.108;13.622;2022-09-14T03:16:23;7.00;;;6.03;;
68653;SDS011;55636;51.108;13.622;2022-09-14T03:17:25;6.72;;;6.05;;
68653;SDS011;55636;51.108;13.622;2022-09-14T03:18:28;7.13;;;6.18;;
68653;SDS011;55636;51.108;13.622;2022-09-14T03:19:30;6.85;;;6.15;;
68653;SDS011;55636;51.108;13.622;2022-09-14T03:20:33;6.63;;;5.65;;
68653;SDS011;55636;51.108;13.622;2022-09-14T03:21:36;9.90;;;6.07;;
68653;SDS011;55636;51.108;13.622;2022-09-14T03:22:40;8.65;;;6.55;;
68653;SDS011;55636;51.108;13.622;2022-09-14T03:23:43;6.30;;;5.70;;
68653;SDS011;55636;51.108;13.622;2022-09-14T03:24:49;6.85;;;5.68;;
68653;SDS011;55636;51.108;13.622;2022-09-14T03:25:52;6.30;;;5.70;;
68653;SDS011;55636;51.108;13.622;2022-09-14T03:26:54;6.25;;;5.65;;
68653;SDS011;55636;51.108;13.622;2022-09-14T03:27:57;6.50;;;5.90;;
68653;SDS011;55636;51.108;13.622;2022-09-14T03:29:01;6.68;;;6.00;;
68653;SDS011;55636;51.108;13.622;2022-09-14T03:30:05;6.85;;;6.03;;
68653;SDS011;55636;51.108;13.622;2022-09-14T03:31:08;6.93;;;6.03;;
68653;SDS011;55636;51.108;13.622;2022-09-14T03:32:12;6.70;;;5.88;;
68653;SDS011;55636;51.108;13.622;2022-09-14T03:33:14;7.15;;;6.05;;
68653;SDS011;55636;51.108;13.622;2022-09-14T03:34:16;6.75;;;5.80;;
68653;SDS011;55636;51.108;13.622;2022-09-14T03:35:21;7.53;;;5.63;;
68653;SDS011;55636;51.108;13.622;2022-09-14T03:36:24;7.47;;;5.93;;
68653;SDS011;55636;51.108;13.622;2022-09-14T03:37:28;6.80;;;5.82;;
68653;SDS011;55636;51.108;13.622;2022-09-14T03:38:30;6.40;;;5.45;;
68653;SDS011;55636;51.108;13.622;2022-09-14T03:39:32;8.55;;;6.03;;
68653;SDS011;55636;51.108;13.622;2022-09-14T03:40:34;6.88;;;5.72;;
68653;SDS011;55636;51.108;13.622;2022-09-14T03:41:36;6.85;;;6.15;;
68653;SDS011;55636;51.108;13.622;2022-09-14T03:42:46;7.88;;;6.03;;
68653;SDS011;55636;51.108;13.622;2022-09-14T03:43:52;6.65;;;5.90;;
68653;SDS011;55636;51.108;13.622;2022-09-14T03:44:54;7.03;;;5.68;;
68653;SDS011;55636;51.108;13.622;2022-09-14T03:45:56;6.05;;;5.45;;
68653;SDS011;55636;51.108;13.622;2022-09-14T03:46:58;7.60;;;5.65;;
68653;SDS011;55636;51.108;13.622;2022-09-14T03:48:00;8.73;;;5.80;;
68653;SDS011;55636;51.108;13.622;2022-09-14T03:49:03;6.75;;;6.05;;
68653;SDS011;55636;51.108;13.622;2022-09-14T03:50:06;9.75;;;5.90;;
68653;SDS011;55636;51.108;13.622;2022-09-14T03:51:10;5.97;;;5.38;;
68653;SDS011;55636;51.108;13.622;2022-09-14T03:52:14;6.25;;;5.15;;
68653;SDS011;55636;51.108;13.622;2022-09-14T03:53:16;6.22;;;5.57;;
68653;SDS011;55636;51.108;13.622;2022-09-14T03:54:18;6.47;;;5.53;;
68653;SDS011;55636;51.108;13.622;2022-09-14T03:55:20;5.97;;;5.38;;
68653;SDS011;55636;51.108;13.622;2022-09-14T03:56:22;5.88;;;5.28;;
68653;SDS011;55636;51.108;13.622;2022-09-14T03:57:25;5.95;;;5.35;;
68653;SDS011;55636;51.108;13.622;2022-09-14T03:58:30;8.52;;;5.90;;
68653;SDS011;55636;51.108;13.622;2022-09-14T03:59:33;9.05;;;5.63;;
68653;SDS011;55636;51.108;13.622;2022-09-14T04:00:35;7.05;;;5.75;;
68653;SDS011;55636;51.108;13.622;2022-09-14T04:01:37;6.45;;;5.35;;
68653;SDS011;55636;51.108;13.622;2022-09-14T04:02:40;6.40;;;5.78;;
68653;SDS011;55636;51.108;13.622;2022-09-14T04:03:42;6.65;;;5.72;;
68653;SDS011;55636;51.108;13.622;2022-09-14T04:04:45;6.18;;;5.57;;
68653;SDS011;55636;51.108;13.622;2022-09-14T04:05:55;7.18;;;6.18;;
68653;SDS011;55636;51.108;13.622;2022-09-14T04:06:57;6.82;;;6.20;;
68653;SDS011;55636;51.108;13.622;2022-09-14T04:07:59;7.68;;;6.32;;
68653;SDS011;55636;51.108;13.622;2022-09-14T04:09:03;7.55;;;6.10;;
68653;SDS011;55636;51.108;13.622;2022-09-14T04:10:05;7.22;;;6.03;;
68653;SDS011;55636;51.108;13.622;2022-09-14T04:11:12;7.28;;;5.68;;
68653;SDS011;55636;51.108;13.622;2022-09-14T04:12:19;6.05;;;5.43;;
68653;SDS011;55636;51.108;13.622;2022-09-14T04:13:21;6.35;;;5.75;;
68653;SDS011;55636;51.108;13.622;2022-09-14T04:14:23;8.88;;;5.68;;
68653;SDS011;55636;51.108;13.622;2022-09-14T04:15:25;5.95;;;5.35;;
68653;SDS011;55636;51.108;13.622;2022-09-14T04:16:28;6.18;;;5.57;;
68653;SDS011;55636;51.108;13.622;2022-09-14T04:17:31;6.47;;;5.88;;
68653;SDS011;55636;51.108;13.622;2022-09-14T04:18:34;6.75;;;6.13;;
68653;SDS011;55636;51.108;13.622;2022-09-14T04:19:36;8.48;;;5.93;;
68653;SDS011;55636;51.108;13.622;2022-09-14T04:20:39;7.63;;;5.47;;
68653;SDS011;55636;51.108;13.622;2022-09-14T04:21:45;6.72;;;5.57;;
68653;SDS011;55636;51.108;13.622;2022-09-14T04:22:48;6.03;;;5.43;;
68653;SDS011;55636;51.108;13.622;2022-09-14T04:23:53;5.95;;;5.35;;
68653;SDS011;55636;51.108;13.622;2022-09-14T04:25:16;7.60;;;5.28;;
68653;SDS011;55636;51.108;13.622;2022-09-14T04:26:19;6.45;;;5.38;;
68653;SDS011;55636;51.108;13.622;2022-09-14T04:27:22;6.03;;;5.43;;
68653;SDS011;55636;51.108;13.622;2022-09-14T04:28:24;7.22;;;5.70;;
68653;SDS011;55636;51.108;13.622;2022-09-14T04:29:27;5.78;;;5.18;;
68653;SDS011;55636;51.108;13.622;2022-09-14T04:30:31;6.07;;;5.50;;
68653;SDS011;55636;51.108;13.622;2022-09-14T04:31:33;6.80;;;5.43;;
68653;SDS011;55636;51.108;13.622;2022-09-14T04:32:36;6.40;;;5.53;;
68653;SDS011;55636;51.108;13.622;2022-09-14T04:33:39;6.15;;;5.30;;
68653;SDS011;55636;51.108;13.622;2022-09-14T04:34:42;6.88;;;5.45;;
68653;SDS011;55636;51.108;13.622;2022-09-14T04:35:44;5.85;;;5.25;;
68653;SDS011;55636;51.108;13.622;2022-09-14T04:36:47;5.78;;;5.28;;
68653;SDS011;55636;51.108;13.622;2022-09-14T04:37:49;5.93;;;5.32;;
68653;SDS011;55636;51.108;13.622;2022-09-14T04:38:51;6.43;;;5.20;;
68653;SDS011;55636;51.108;13.622;2022-09-14T04:39:55;6.00;;;5.40;;
68653;SDS011;55636;51.108;13.622;2022-09-14T04:40:57;6.03;;;5.28;;
68653;SDS011;55636;51.108;13.622;2022-09-14T04:42:00;8.07;;;5.85;;
68653;SDS011;55636;51.108;13.622;2022-09-14T04:43:02;6.30;;;5.43;;
68653;SDS011;55636;51.108;13.622;2022-09-14T04:44:04;5.47;;;4.93;;
68653;SDS011;55636;51.108;13.622;2022-09-14T04:45:07;5.75;;;5.15;;
68653;SDS011;55636;51.108;13.622;2022-09-14T04:46:11;8.82;;;5.18;;
68653;SDS011;55636;51.108;13.622;2022-09-14T04:47:15;5.97;;;5.43;;
68653;SDS011;55636;51.108;13.622;2022-09-14T04:48:18;6.40;;;5.43;;
68653;SDS011;55636;51.108;13.622;2022-09-14T04:49:20;6.07;;;5.35;;
68653;SDS011;55636;51.108;13.622;2022-09-14T04:50:23;6.82;;;5.65;;
68653;SDS011;55636;51.108;13.622;2022-09-14T04:51:27;5.85;;;5.25;;
68653;SDS011;55636;51.108;13.622;2022-09-14T04:52:30;5.88;;;5.15;;
68653;SDS011;55636;51.108;13.622;2022-09-14T04:53:36;8.07;;;5.30;;
68653;SDS011;55636;51.108;13.622;2022-09-14T04:54:39;6.90;;;5.40;;
68653;SDS011;55636;51.108;13.622;2022-09-14T04:55:41;6.40;;;5.50;;
68653;SDS011;55636;51.108;13.622;2022-09-14T04:56:44;6.82;;;5.30;;
68653;SDS011;55636;51.108;13.622;2022-09-14T04:57:46;5.97;;;5.38;;
68653;SDS011;55636;51.108;13.622;2022-09-14T04:58:49;6.80;;;5.38;;
68653;SDS011;55636;51.108;13.622;2022-09-14T04:59:53;6.13;;;5.38;;
68653;SDS011;55636;51.108;13.622;2022-09-14T05:01:06;6.90;;;5.47;;
68653;SDS011;55636;51.108;13.622;2022-09-14T05:02:10;5.90;;;5.15;;
68653;SDS011;55636;51.108;13.622;2022-09-14T05:03:13;6.10;;;5.50;;
68653;SDS011;55636;51.108;13.622;2022-09-14T05:04:15;5.38;;;4.90;;
68653;SDS011;55636;51.108;13.622;2022-09-14T05:05:20;6.05;;;5.32;;
68653;SDS011;55636;51.108;13.622;2022-09-14T05:06:23;8.25;;;5.90;;
68653;SDS011;55636;51.108;13.622;2022-09-14T05:07:27;5.78;;;5.28;;
68653;SDS011;55636;51.108;13.622;2022-09-14T05:08:29;6.55;;;5.50;;
68653;SDS011;55636;51.108;13.622;2022-09-14T05:09:31;6.80;;;6.00;;
68653;SDS011;55636;51.108;13.622;2022-09-14T05:10:33;7.20;;;5.45;;
68653;SDS011;55636;51.108;13.622;2022-09-14T05:11:36;6.78;;;5.65;;
68653;SDS011;55636;51.108;13.622;2022-09-14T05:12:38;6.53;;;5.57;;
68653;SDS011;55636;51.108;13.622;2022-09-14T05:13:41;6.20;;;5.60;;
68653;SDS011;55636;51.108;13.622;2022-09-14T05:14:50;6.20;;;5.60;;
68653;SDS011;55636;51.108;13.622;2022-09-14T05:15:52;5.82;;;5.22;;
68653;SDS011;55636;51.108;13.622;2022-09-14T05:16:55;5.57;;;4.97;;
68653;SDS011;55636;51.108;13.622;2022-09-14T05:18:02;7.07;;;5.90;;
68653;SDS011;55636;51.108;13.622;2022-09-14T05:19:05;9.25;;;5.88;;
68653;SDS011;55636;51.108;13.622;2022-09-14T05:20:11;6.50;;;5.47;;
68653;SDS011;55636;51.108;13.622;2022-09-14T05:21:14;6.13;;;5.30;;
68653;SDS011;55636;51.108;13.622;2022-09-14T05:22:19;6.93;;;6.20;;
68653;SDS011;55636;51.108;13.622;2022-09-14T05:23:22;7.88;;;6.10;;
68653;SDS011;55636;51.108;13.622;2022-09-14T05:24:24;8.88;;;6.28;;
68653;SDS011;55636;51.108;13.622;2022-09-14T05:25:26;8.73;;;6.05;;
68653;SDS011;55636;51.108;13.622;2022-09-14T05:26:30;7.97;;;6.18;;
68653;SDS011;55636;51.108;13.622;2022-09-14T05:27:33;8.27;;;6.03;;
68653;SDS011;55636;51.108;13.622;2022-09-14T05:28:35;6.15;;;5.55;;
68653;SDS011;55636;51.108;13.622;2022-09-14T05:29:38;6.85;;;5.53;;
68653;SDS011;55636;51.108;13.622;2022-09-14T05:30:41;6.78;;;5.95;;
68653;SDS011;55636;51.108;13.622;2022-09-14T05:31:43;6.88;;;6.07;;
68653;SDS011;55636;51.108;13.622;2022-09-14T05:32:46;6.90;;;6.07;;
68653;SDS011;55636;51.108;13.622;2022-09-14T05:33:48;6.93;;;5.82;;
68653;SDS011;55636;51.108;13.622;2022-09-14T05:34:51;7.45;;;5.97;;
68653;SDS011;55636;51.108;13.622;2022-09-14T05:35:58;6.95;;;6.00;;
68653;SDS011;55636;51.108;13.622;2022-09-14T05:37:02;6.30;;;5.68;;
68653;SDS011;55636;51.108;13.622;2022-09-14T05:38:04;10.10;;;6.32;;
68653;SDS011;55636;51.108;13.622;2022-09-14T05:39:07;7.13;;;6.35;;
68653;SDS011;55636;51.108;13.622;2022-09-14T05:40:10;9.77;;;6.00;;
68653;SDS011;55636;51.108;13.622;2022-09-14T05:41:13;7.85;;;6.30;;
68653;SDS011;55636;51.108;13.622;2022-09-14T05:42:16;7.60;;;6.22;;
68653;SDS011;55636;51.108;13.622;2022-09-14T05:43:18;6.95;;;6.25;;
68653;SDS011;55636;51.108;13.622;2022-09-14T05:44:21;7.85;;;6.65;;
68653;SDS011;55636;51.108;13.622;2022-09-14T05:45:23;7.93;;;6.53;;
68653;SDS011;55636;51.108;13.622;2022-09-14T05:46:25;7.38;;;6.50;;
68653;SDS011;55636;51.108;13.622;2022-09-14T05:47:28;9.65;;;7.00;;
68653;SDS011;55636;51.108;13.622;2022-09-14T05:48:31;8.10;;;7.30;;
68653;SDS011;55636;51.108;13.622;2022-09-14T05:49:34;7.93;;;6.85;;
68653;SDS011;55636;51.108;13.622;2022-09-14T05:50:36;7.85;;;6.93;;
68653;SDS011;55636;51.108;13.622;2022-09-14T05:51:38;7.90;;;7.20;;
68653;SDS011;55636;51.108;13.622;2022-09-14T05:52:40;8.25;;;7.25;;
68653;SDS011;55636;51.108;13.622;2022-09-14T05:53:52;9.05;;;7.70;;
68653;SDS011;55636;51.108;13.622;2022-09-14T05:54:57;9.60;;;7.82;;
68653;SDS011;55636;51.108;13.622;2022-09-14T05:56:04;8.30;;;7.50;;
68653;SDS011;55636;51.108;13.622;2022-09-14T05:57:09;9.65;;;7.88;;
68653;SDS011;55636;51.108;13.622;2022-09-14T05:58:11;7.90;;;7.20;;
68653;SDS011;55636;51.108;13.622;2022-09-14T05:59:14;9.20;;;7.43;;
68653;SDS011;55636;51.108;13.622;2022-09-14T06:00:16;8.10;;;7.30;;
68653;SDS011;55636;51.108;13.622;2022-09-14T06:01:23;8.63;;;7.72;;
68653;SDS011;55636;51.108;13.622;2022-09-14T06:02:28;8.25;;;7.00;;
68653;SDS011;55636;51.108;13.622;2022-09-14T06:03:31;8.55;;;7.75;;
68653;SDS011;55636;51.108;13.622;2022-09-14T06:04:33;9.05;;;8.15;;
68653;SDS011;55636;51.108;13.622;2022-09-14T06:05:35;9.10;;;8.20;;
68653;SDS011;55636;51.108;13.622;2022-09-14T06:06:38;8.27;;;7.53;;
68653;SDS011;55636;51.108;13.622;2022-09-14T06:07:40;9.82;;;7.97;;
68653;SDS011;55636;51.108;13.622;2022-09-14T06:08:43;10.43;;;8.38;;
68653;SDS011;55636;51.108;13.622;2022-09-14T06:09:45;12.25;;;8.85;;
68653;SDS011;55636;51.108;13.622;2022-09-14T06:10:48;9.75;;;8.18;;
68653;SDS011;55636;51.108;13.622;2022-09-14T06:11:50;8.90;;;8.00;;
68653;SDS011;55636;51.108;13.622;2022-09-14T06:12:52;10.77;;;8.98;;
68653;SDS011;55636;51.108;13.622;2022-09-14T06:13:56;9.15;;;8.27;;
68653;SDS011;55636;51.108;13.622;2022-09-14T06:14:58;9.02;;;7.97;;
68653;SDS011;55636;51.108;13.622;2022-09-14T06:16:01;8.98;;;8.15;;
68653;SDS011;55636;51.108;13.622;2022-09-14T06:17:09;8.52;;;7.63;;
68653;SDS011;55636;51.108;13.622;2022-09-14T06:18:11;8.77;;;7.88;;
68653;SDS011;55636;51.108;13.622;2022-09-14T06:19:13;9.82;;;8.10;;
68653;SDS011;55636;51.108;13.622;2022-09-14T06:20:16;8.95;;;8.02;;
68653;SDS011;55636;51.108;13.622;2022-09-14T06:21:19;10.25;;;8.30;;
68653;SDS011;55636;51.108;13.622;2022-09-14T06:22:23;8.93;;;7.90;;
68653;SDS011;55636;51.108;13.622;2022-09-14T06:23:28;9.98;;;8.35;;
68653;SDS011;55636;51.108;13.622;2022-09-14T06:24:31;9.77;;;7.82;;
68653;SDS011;55636;51.108;13.622;2022-09-14T06:25:34;8.63;;;7.82;;
68653;SDS011;55636;51.108;13.622;2022-09-14T06:26:36;9.27;;;7.65;;
68653;SDS011;55636;51.108;13.622;2022-09-14T06:27:38;9.75;;;7.90;;
68653;SDS011;55636;51.108;13.622;2022-09-14T06:28:41;8.05;;;7.25;;
68653;SDS011;55636;51.108;13.622;2022-09-14T06:29:43;8.00;;;7.10;;
68653;SDS011;55636;51.108;13.622;2022-09-14T06:30:46;10.05;;;8.20;;
68653;SDS011;55636;51.108;13.622;2022-09-14T06:31:52;8.60;;;7.70;;
68653;SDS011;55636;51.108;13.622;2022-09-14T06:32:55;8.30;;;7.38;;
68653;SDS011;55636;51.108;13.622;2022-09-14T06:33:57;9.65;;;8.05;;
68653;SDS011;55636;51.108;13.622;2022-09-14T06:34:59;9.15;;;8.07;;
68653;SDS011;55636;51.108;13.622;2022-09-14T06:37:05;8.65;;;7.75;;
68653;SDS011;55636;51.108;13.622;2022-09-14T06:38:07;9.73;;;8.25;;
68653;SDS011;55636;51.108;13.622;2022-09-14T06:39:10;9.63;;;8.50;;
68653;SDS011;55636;51.108;13.622;2022-09-14T06:40:12;9.18;;;8.27;;
68653;SDS011;55636;51.108;13.622;2022-09-14T06:41:15;9.40;;;8.20;;
68653;SDS011;55636;51.108;13.622;2022-09-14T06:42:19;9.18;;;7.35;;
68653;SDS011;55636;51.108;13.622;2022-09-14T06:43:26;9.10;;;8.05;;
68653;SDS011;55636;51.108;13.622;2022-09-14T06:44:30;12.20;;;7.55;;
68653;SDS011;55636;51.108;13.622;2022-09-14T06:45:32;11.50;;;7.50;;
68653;SDS011;55636;51.108;13.622;2022-09-14T06:46:35;8.10;;;7.13;;
68653;SDS011;55636;51.108;13.622;2022-09-14T06:47:37;8.63;;;7.70;;
68653;SDS011;55636;51.108;13.622;2022-09-14T06:48:41;10.05;;;7.97;;
68653;SDS011;55636;51.108;13.622;2022-09-14T06:49:45;8.35;;;7.47;;
68653;SDS011;55636;51.108;13.622;2022-09-14T06:50:47;8.85;;;7.65;;